Cape Canaveral, FL (32920)

3:30 PM EDT on July 27, 2016 (GMT -0400)
Island Crossings | | Change Station

Elev 13 ft 28.40 °N, 80.67 °W | Updated 4 minutes ago

Clear
Clear
91.4 °F
Feels Like 109 °F
N
3.0
Wind Variable Wind from SE
Gusts 10.0 mph

Today
High -- | Low -- °F
--% Chance of Precip.
Yesterday
High -- | Low -- °F
Precip. -- in
Pressure 30.06 in
Visibility 10.0 miles
Clouds Clear
Heat Index 109 °F
Dew Point 80 °F
Humidity 69%
Rainfall 0.00 in
Snow Depth Not available.
6:41 AM 8:15 PM
Last Quarter, 40% visible
METAR KXMR 271858Z AUTO 15011KT 10SM CLR 34/22 A3005 RMK AO2 SLP179 T03360218 $
Pressure 30.06 in
Visibility 10.0 miles
Clouds Clear
Heat Index 109 °F
Dew Point 80 °F
Humidity 69%
Rainfall 0.00 in
Snow Depth Not available.
6:41 AM 8:15 PM
Last Quarter, 40% visible
METAR KXMR 271858Z AUTO 15011KT 10SM CLR 34/22 A3005 RMK AO2 SLP179 T03360218 $

10-Day Weather Forecast

Almanac

Astronomy

Jul. 27, 2016 Rise Set
Actual Time
Civil Twilight
Nautical Twilight
Astronomical Twilight
Moon
Length of Visible Light
Length of Day
Tomorrow will be .
, % of the Moon is Illuminated

Today's Extremes

State Highs State Lows

Community

WunderPhotos

Upload Photos

1,927,915 photos uploaded!

WunderBlog® & News

Nearby

Air Quality

  Air Quality AQ Index Pollutant
Not available.

Snow Depth

Station Depth Elevation

Earthquake Activity

City Distance Mag. Time & Date
Minimum magnitude displayed is 2.5.

Coastal Water Temperatures

Place Temperature

Stations

Nearby Weather Stations

Station Location Temp. Windchill Dew Point Humidity Wind Precip. Elev Updated Type
                   

Watches & Warnings

There are currently no watches in effect.